sensor_id;sensor_type;location;lat;lon;timestamp;P1;durP1;ratioP1;P2;durP2;ratioP2
549;SDS011;20066;48.764;9.176;2023-04-12T00:00:34;3.45;;;2.00;;
549;SDS011;20066;48.764;9.176;2023-04-12T00:03:04;11.77;;;2.83;;
549;SDS011;20066;48.764;9.176;2023-04-12T00:05:34;16.38;;;2.80;;
549;SDS011;20066;48.764;9.176;2023-04-12T00:08:03;4.95;;;2.38;;
549;SDS011;20066;48.764;9.176;2023-04-12T00:10:32;6.75;;;2.30;;
549;SDS011;20066;48.764;9.176;2023-04-12T00:12:59;6.40;;;2.55;;
549;SDS011;20066;48.764;9.176;2023-04-12T00:15:27;6.00;;;2.22;;
549;SDS011;20066;48.764;9.176;2023-04-12T00:17:55;8.55;;;2.08;;
549;SDS011;20066;48.764;9.176;2023-04-12T00:20:23;10.77;;;2.92;;
549;SDS011;20066;48.764;9.176;2023-04-12T00:22:52;6.50;;;2.22;;
549;SDS011;20066;48.764;9.176;2023-04-12T00:25:22;11.07;;;2.33;;
549;SDS011;20066;48.764;9.176;2023-04-12T00:27:50;4.50;;;1.73;;
549;SDS011;20066;48.764;9.176;2023-04-12T00:30:18;6.22;;;2.25;;
549;SDS011;20066;48.764;9.176;2023-04-12T00:32:46;4.97;;;2.30;;
549;SDS011;20066;48.764;9.176;2023-04-12T00:35:13;6.25;;;2.13;;
549;SDS011;20066;48.764;9.176;2023-04-12T00:37:41;6.93;;;2.67;;
549;SDS011;20066;48.764;9.176;2023-04-12T00:40:11;8.73;;;2.40;;
549;SDS011;20066;48.764;9.176;2023-04-12T00:42:39;8.13;;;2.10;;
549;SDS011;20066;48.764;9.176;2023-04-12T00:45:07;7.78;;;2.58;;
549;SDS011;20066;48.764;9.176;2023-04-12T00:47:35;4.90;;;2.40;;
549;SDS011;20066;48.764;9.176;2023-04-12T00:50:04;11.77;;;2.97;;
549;SDS011;20066;48.764;9.176;2023-04-12T00:52:34;6.78;;;2.10;;
549;SDS011;20066;48.764;9.176;2023-04-12T00:55:03;6.68;;;2.42;;
549;SDS011;20066;48.764;9.176;2023-04-12T00:57:34;5.82;;;2.67;;
549;SDS011;20066;48.764;9.176;2023-04-12T01:00:03;5.75;;;2.20;;
549;SDS011;20066;48.764;9.176;2023-04-12T01:02:33;10.07;;;2.22;;
549;SDS011;20066;48.764;9.176;2023-04-12T01:05:05;6.80;;;2.63;;
549;SDS011;20066;48.764;9.176;2023-04-12T01:07:43;6.55;;;2.10;;
549;SDS011;20066;48.764;9.176;2023-04-12T01:10:22;8.98;;;2.65;;
549;SDS011;20066;48.764;9.176;2023-04-12T01:13:04;6.20;;;2.33;;
549;SDS011;20066;48.764;9.176;2023-04-12T01:15:42;4.13;;;2.38;;
549;SDS011;20066;48.764;9.176;2023-04-12T01:18:15;8.35;;;2.63;;
549;SDS011;20066;48.764;9.176;2023-04-12T01:20:50;9.57;;;2.30;;
549;SDS011;20066;48.764;9.176;2023-04-12T01:23:32;11.25;;;2.40;;
549;SDS011;20066;48.764;9.176;2023-04-12T01:26:13;7.55;;;2.20;;
549;SDS011;20066;48.764;9.176;2023-04-12T01:28:54;7.28;;;2.10;;
549;SDS011;20066;48.764;9.176;2023-04-12T01:31:23;14.93;;;1.95;;
549;SDS011;20066;48.764;9.176;2023-04-12T01:33:53;7.28;;;2.20;;
549;SDS011;20066;48.764;9.176;2023-04-12T01:36:24;5.13;;;1.88;;
549;SDS011;20066;48.764;9.176;2023-04-12T01:38:54;4.75;;;2.00;;
549;SDS011;20066;48.764;9.176;2023-04-12T01:41:22;6.00;;;2.20;;
549;SDS011;20066;48.764;9.176;2023-04-12T01:43:50;4.00;;;2.10;;
549;SDS011;20066;48.764;9.176;2023-04-12T01:46:21;4.80;;;2.03;;
549;SDS011;20066;48.764;9.176;2023-04-12T01:48:50;6.68;;;2.00;;
549;SDS011;20066;48.764;9.176;2023-04-12T01:51:23;7.38;;;2.22;;
549;SDS011;20066;48.764;9.176;2023-04-12T01:54:02;8.40;;;2.88;;
549;SDS011;20066;48.764;9.176;2023-04-12T01:56:37;9.45;;;2.55;;
549;SDS011;20066;48.764;9.176;2023-04-12T01:59:08;5.43;;;2.22;;
549;SDS011;20066;48.764;9.176;2023-04-12T02:01:42;5.07;;;2.20;;
549;SDS011;20066;48.764;9.176;2023-04-12T02:04:10;5.82;;;2.47;;
549;SDS011;20066;48.764;9.176;2023-04-12T02:06:39;9.13;;;2.17;;
549;SDS011;20066;48.764;9.176;2023-04-12T02:09:08;6.53;;;2.10;;
549;SDS011;20066;48.764;9.176;2023-04-12T02:11:36;4.05;;;2.03;;
549;SDS011;20066;48.764;9.176;2023-04-12T02:14:04;6.43;;;2.67;;
549;SDS011;20066;48.764;9.176;2023-04-12T02:16:33;9.60;;;2.58;;
549;SDS011;20066;48.764;9.176;2023-04-12T02:19:02;9.95;;;2.25;;
549;SDS011;20066;48.764;9.176;2023-04-12T02:21:38;4.00;;;2.13;;
549;SDS011;20066;48.764;9.176;2023-04-12T02:24:07;7.13;;;2.65;;
549;SDS011;20066;48.764;9.176;2023-04-12T02:26:35;5.38;;;2.00;;
549;SDS011;20066;48.764;9.176;2023-04-12T02:29:03;7.60;;;2.78;;
549;SDS011;20066;48.764;9.176;2023-04-12T02:31:32;9.27;;;2.65;;
549;SDS011;20066;48.764;9.176;2023-04-12T02:34:00;5.15;;;2.50;;
549;SDS011;20066;48.764;9.176;2023-04-12T02:36:30;5.32;;;2.10;;
549;SDS011;20066;48.764;9.176;2023-04-12T02:38:57;9.20;;;3.30;;
549;SDS011;20066;48.764;9.176;2023-04-12T02:41:26;6.70;;;2.58;;
549;SDS011;20066;48.764;9.176;2023-04-12T02:43:53;9.23;;;2.30;;
549;SDS011;20066;48.764;9.176;2023-04-12T02:46:22;7.18;;;2.45;;
549;SDS011;20066;48.764;9.176;2023-04-12T02:48:52;9.43;;;2.90;;
549;SDS011;20066;48.764;9.176;2023-04-12T02:51:20;6.10;;;2.55;;
549;SDS011;20066;48.764;9.176;2023-04-12T02:53:49;4.97;;;2.83;;
549;SDS011;20066;48.764;9.176;2023-04-12T02:56:17;8.57;;;2.85;;
549;SDS011;20066;48.764;9.176;2023-04-12T02:58:45;8.32;;;3.00;;
549;SDS011;20066;48.764;9.176;2023-04-12T03:01:12;5.03;;;2.53;;
549;SDS011;20066;48.764;9.176;2023-04-12T03:03:40;6.57;;;3.50;;
549;SDS011;20066;48.764;9.176;2023-04-12T03:06:08;7.78;;;3.20;;
549;SDS011;20066;48.764;9.176;2023-04-12T03:08:36;7.18;;;3.15;;
549;SDS011;20066;48.764;9.176;2023-04-12T03:11:06;14.18;;;4.32;;
549;SDS011;20066;48.764;9.176;2023-04-12T03:13:33;6.30;;;2.92;;
549;SDS011;20066;48.764;9.176;2023-04-12T03:16:11;6.90;;;3.05;;
549;SDS011;20066;48.764;9.176;2023-04-12T03:18:47;11.85;;;3.60;;
549;SDS011;20066;48.764;9.176;2023-04-12T03:21:15;16.45;;;4.95;;
549;SDS011;20066;48.764;9.176;2023-04-12T03:23:43;6.97;;;3.88;;
549;SDS011;20066;48.764;9.176;2023-04-12T03:26:12;7.93;;;3.80;;
549;SDS011;20066;48.764;9.176;2023-04-12T03:28:40;9.60;;;3.15;;
549;SDS011;20066;48.764;9.176;2023-04-12T03:31:08;8.77;;;3.60;;
549;SDS011;20066;48.764;9.176;2023-04-12T03:33:37;5.85;;;3.45;;
549;SDS011;20066;48.764;9.176;2023-04-12T03:36:06;7.68;;;3.33;;
549;SDS011;20066;48.764;9.176;2023-04-12T03:38:35;8.10;;;3.60;;
549;SDS011;20066;48.764;9.176;2023-04-12T03:41:03;4.80;;;3.45;;
549;SDS011;20066;48.764;9.176;2023-04-12T03:43:32;9.18;;;3.63;;
549;SDS011;20066;48.764;9.176;2023-04-12T03:46:01;7.35;;;3.25;;
549;SDS011;20066;48.764;9.176;2023-04-12T03:48:29;7.32;;;3.13;;
549;SDS011;20066;48.764;9.176;2023-04-12T03:50:57;5.50;;;2.83;;
549;SDS011;20066;48.764;9.176;2023-04-12T03:53:25;6.55;;;3.25;;
549;SDS011;20066;48.764;9.176;2023-04-12T03:55:53;8.63;;;3.33;;
549;SDS011;20066;48.764;9.176;2023-04-12T03:58:21;5.70;;;3.25;;
549;SDS011;20066;48.764;9.176;2023-04-12T04:00:50;9.50;;;3.53;;
549;SDS011;20066;48.764;9.176;2023-04-12T04:03:18;11.52;;;3.30;;
549;SDS011;20066;48.764;9.176;2023-04-12T04:05:52;10.93;;;4.30;;
549;SDS011;20066;48.764;9.176;2023-04-12T04:08:20;7.38;;;4.13;;
549;SDS011;20066;48.764;9.176;2023-04-12T04:10:48;6.30;;;3.90;;
549;SDS011;20066;48.764;9.176;2023-04-12T04:13:15;8.05;;;3.80;;
549;SDS011;20066;48.764;9.176;2023-04-12T04:15:43;10.73;;;3.45;;
549;SDS011;20066;48.764;9.176;2023-04-12T04:18:12;11.00;;;4.22;;
549;SDS011;20066;48.764;9.176;2023-04-12T04:20:40;9.40;;;4.45;;
549;SDS011;20066;48.764;9.176;2023-04-12T04:23:08;7.25;;;4.47;;
549;SDS011;20066;48.764;9.176;2023-04-12T04:25:36;8.48;;;4.10;;
549;SDS011;20066;48.764;9.176;2023-04-12T04:28:04;8.20;;;4.28;;
549;SDS011;20066;48.764;9.176;2023-04-12T04:30:33;8.20;;;4.43;;
549;SDS011;20066;48.764;9.176;2023-04-12T04:33:04;7.85;;;4.60;;
549;SDS011;20066;48.764;9.176;2023-04-12T04:35:33;11.27;;;4.82;;
549;SDS011;20066;48.764;9.176;2023-04-12T04:38:05;8.75;;;4.85;;
549;SDS011;20066;48.764;9.176;2023-04-12T04:40:35;8.05;;;4.80;;
549;SDS011;20066;48.764;9.176;2023-04-12T04:43:03;7.38;;;4.38;;
549;SDS011;20066;48.764;9.176;2023-04-12T04:45:33;5.93;;;3.60;;
549;SDS011;20066;48.764;9.176;2023-04-12T04:48:01;7.50;;;4.60;;
549;SDS011;20066;48.764;9.176;2023-04-12T04:50:29;9.20;;;4.45;;
549;SDS011;20066;48.764;9.176;2023-04-12T04:52:58;6.72;;;4.22;;
549;SDS011;20066;48.764;9.176;2023-04-12T04:55:27;5.82;;;3.80;;
549;SDS011;20066;48.764;9.176;2023-04-12T04:57:55;8.77;;;3.90;;
549;SDS011;20066;48.764;9.176;2023-04-12T05:00:24;7.32;;;3.80;;
549;SDS011;20066;48.764;9.176;2023-04-12T05:02:51;7.93;;;4.43;;
549;SDS011;20066;48.764;9.176;2023-04-12T05:05:19;11.00;;;3.90;;
549;SDS011;20066;48.764;9.176;2023-04-12T05:07:48;6.45;;;4.07;;
549;SDS011;20066;48.764;9.176;2023-04-12T05:10:17;8.30;;;3.78;;
549;SDS011;20066;48.764;9.176;2023-04-12T05:12:45;8.27;;;3.97;;
549;SDS011;20066;48.764;9.176;2023-04-12T05:17:48;6.68;;;4.55;;
549;SDS011;20066;48.764;9.176;2023-04-12T05:20:25;6.85;;;3.50;;
549;SDS011;20066;48.764;9.176;2023-04-12T05:28:45;7.28;;;3.50;;
549;SDS011;20066;48.764;9.176;2023-04-12T05:31:12;6.35;;;4.13;;
549;SDS011;20066;48.764;9.176;2023-04-12T05:33:41;6.25;;;2.95;;
549;SDS011;20066;48.764;9.176;2023-04-12T05:36:10;7.78;;;3.67;;
549;SDS011;20066;48.764;9.176;2023-04-12T05:38:38;6.57;;;3.72;;
549;SDS011;20066;48.764;9.176;2023-04-12T05:41:05;5.93;;;3.40;;
549;SDS011;20066;48.764;9.176;2023-04-12T05:43:36;7.13;;;3.90;;
549;SDS011;20066;48.764;9.176;2023-04-12T05:46:05;6.93;;;4.22;;
549;SDS011;20066;48.764;9.176;2023-04-12T05:48:35;7.30;;;3.80;;
549;SDS011;20066;48.764;9.176;2023-04-12T05:51:03;6.68;;;3.58;;
549;SDS011;20066;48.764;9.176;2023-04-12T05:53:31;7.05;;;3.90;;
549;SDS011;20066;48.764;9.176;2023-04-12T05:55:59;5.78;;;3.40;;
549;SDS011;20066;48.764;9.176;2023-04-12T05:58:27;5.95;;;3.35;;
549;SDS011;20066;48.764;9.176;2023-04-12T06:00:56;11.93;;;4.00;;
549;SDS011;20066;48.764;9.176;2023-04-12T06:03:24;8.40;;;3.80;;
549;SDS011;20066;48.764;9.176;2023-04-12T06:05:55;9.95;;;4.40;;
549;SDS011;20066;48.764;9.176;2023-04-12T06:08:23;6.28;;;3.90;;
549;SDS011;20066;48.764;9.176;2023-04-12T06:10:54;8.93;;;4.00;;
549;SDS011;20066;48.764;9.176;2023-04-12T06:13:22;9.20;;;3.75;;
549;SDS011;20066;48.764;9.176;2023-04-12T06:15:50;8.00;;;3.42;;
549;SDS011;20066;48.764;9.176;2023-04-12T06:18:19;5.03;;;3.25;;
549;SDS011;20066;48.764;9.176;2023-04-12T06:20:47;11.05;;;3.85;;
549;SDS011;20066;48.764;9.176;2023-04-12T06:23:15;8.07;;;3.63;;
549;SDS011;20066;48.764;9.176;2023-04-12T06:25:44;5.60;;;3.33;;
549;SDS011;20066;48.764;9.176;2023-04-12T06:28:13;4.10;;;2.55;;
549;SDS011;20066;48.764;9.176;2023-04-12T06:30:41;5.55;;;2.90;;
549;SDS011;20066;48.764;9.176;2023-04-12T06:33:09;5.93;;;3.45;;
549;SDS011;20066;48.764;9.176;2023-04-12T06:35:38;5.13;;;2.80;;
549;SDS011;20066;48.764;9.176;2023-04-12T06:38:06;5.68;;;3.00;;
549;SDS011;20066;48.764;9.176;2023-04-12T06:40:33;7.18;;;3.08;;
549;SDS011;20066;48.764;9.176;2023-04-12T06:43:01;6.43;;;3.75;;
549;SDS011;20066;48.764;9.176;2023-04-12T06:45:29;6.50;;;3.20;;
549;SDS011;20066;48.764;9.176;2023-04-12T06:47:57;12.00;;;2.92;;
549;SDS011;20066;48.764;9.176;2023-04-12T06:50:25;11.18;;;3.50;;
549;SDS011;20066;48.764;9.176;2023-04-12T06:52:54;8.40;;;3.20;;
549;SDS011;20066;48.764;9.176;2023-04-12T06:55:21;4.35;;;2.60;;
549;SDS011;20066;48.764;9.176;2023-04-12T06:57:49;6.18;;;3.58;;
549;SDS011;20066;48.764;9.176;2023-04-12T07:00:17;8.73;;;3.08;;
549;SDS011;20066;48.764;9.176;2023-04-12T07:02:45;8.50;;;3.63;;
549;SDS011;20066;48.764;9.176;2023-04-12T07:05:13;6.47;;;3.00;;
549;SDS011;20066;48.764;9.176;2023-04-12T07:07:41;6.32;;;3.10;;
549;SDS011;20066;48.764;9.176;2023-04-12T07:10:10;5.45;;;3.05;;
549;SDS011;20066;48.764;9.176;2023-04-12T07:12:38;7.45;;;2.90;;
549;SDS011;20066;48.764;9.176;2023-04-12T07:15:07;4.53;;;2.42;;
549;SDS011;20066;48.764;9.176;2023-04-12T07:17:35;8.88;;;2.92;;
549;SDS011;20066;48.764;9.176;2023-04-12T07:20:03;11.00;;;3.90;;
549;SDS011;20066;48.764;9.176;2023-04-12T07:22:32;6.75;;;3.17;;
549;SDS011;20066;48.764;9.176;2023-04-12T07:24:59;5.30;;;2.70;;
549;SDS011;20066;48.764;9.176;2023-04-12T07:27:29;4.28;;;2.38;;
549;SDS011;20066;48.764;9.176;2023-04-12T07:29:57;12.65;;;2.78;;
549;SDS011;20066;48.764;9.176;2023-04-12T07:32:24;4.63;;;2.60;;
549;SDS011;20066;48.764;9.176;2023-04-12T07:34:53;3.50;;;2.50;;
549;SDS011;20066;48.764;9.176;2023-04-12T07:37:21;3.70;;;1.80;;
549;SDS011;20066;48.764;9.176;2023-04-12T07:39:49;6.35;;;1.95;;
549;SDS011;20066;48.764;9.176;2023-04-12T07:42:16;3.17;;;2.05;;
549;SDS011;20066;48.764;9.176;2023-04-12T07:44:46;7.35;;;2.47;;
549;SDS011;20066;48.764;9.176;2023-04-12T07:47:13;5.60;;;1.50;;
549;SDS011;20066;48.764;9.176;2023-04-12T07:49:41;3.65;;;2.20;;
549;SDS011;20066;48.764;9.176;2023-04-12T07:52:09;5.25;;;1.70;;
549;SDS011;20066;48.764;9.176;2023-04-12T07:54:37;2.30;;;1.50;;
549;SDS011;20066;48.764;9.176;2023-04-12T07:57:05;3.08;;;1.42;;
549;SDS011;20066;48.764;9.176;2023-04-12T07:59:34;3.53;;;1.88;;
549;SDS011;20066;48.764;9.176;2023-04-12T08:02:03;3.38;;;1.40;;
549;SDS011;20066;48.764;9.176;2023-04-12T08:04:31;4.78;;;1.60;;
549;SDS011;20066;48.764;9.176;2023-04-12T08:06:59;2.80;;;1.67;;
549;SDS011;20066;48.764;9.176;2023-04-12T08:09:27;3.30;;;1.65;;
549;SDS011;20066;48.764;9.176;2023-04-12T08:11:55;7.65;;;1.30;;
549;SDS011;20066;48.764;9.176;2023-04-12T08:14:23;10.65;;;2.30;;
549;SDS011;20066;48.764;9.176;2023-04-12T08:16:51;6.13;;;1.73;;
549;SDS011;20066;48.764;9.176;2023-04-12T08:19:20;2.78;;;1.88;;
549;SDS011;20066;48.764;9.176;2023-04-12T08:21:48;2.95;;;1.40;;
549;SDS011;20066;48.764;9.176;2023-04-12T08:24:16;4.05;;;1.63;;
549;SDS011;20066;48.764;9.176;2023-04-12T08:26:45;4.22;;;1.30;;
549;SDS011;20066;48.764;9.176;2023-04-12T08:29:13;3.60;;;1.90;;
549;SDS011;20066;48.764;9.176;2023-04-12T08:31:40;5.38;;;1.63;;
549;SDS011;20066;48.764;9.176;2023-04-12T08:34:08;2.50;;;1.40;;
549;SDS011;20066;48.764;9.176;2023-04-12T08:36:37;3.17;;;1.73;;
549;SDS011;20066;48.764;9.176;2023-04-12T08:39:05;4.07;;;1.80;;
549;SDS011;20066;48.764;9.176;2023-04-12T08:41:33;2.72;;;1.60;;
549;SDS011;20066;48.764;9.176;2023-04-12T08:44:04;3.40;;;1.88;;
549;SDS011;20066;48.764;9.176;2023-04-12T08:46:34;4.03;;;1.80;;
549;SDS011;20066;48.764;9.176;2023-04-12T08:49:02;5.28;;;1.48;;
549;SDS011;20066;48.764;9.176;2023-04-12T08:51:30;4.07;;;1.70;;
549;SDS011;20066;48.764;9.176;2023-04-12T08:54:02;3.53;;;1.80;;
549;SDS011;20066;48.764;9.176;2023-04-12T08:56:31;3.65;;;1.90;;
549;SDS011;20066;48.764;9.176;2023-04-12T08:58:59;4.07;;;1.80;;
549;SDS011;20066;48.764;9.176;2023-04-12T09:01:27;3.20;;;1.75;;
549;SDS011;20066;48.764;9.176;2023-04-12T09:03:55;2.50;;;1.33;;
549;SDS011;20066;48.764;9.176;2023-04-12T09:06:24;4.07;;;1.58;;
549;SDS011;20066;48.764;9.176;2023-04-12T09:08:53;6.20;;;2.03;;
549;SDS011;20066;48.764;9.176;2023-04-12T09:11:24;4.35;;;1.33;;
549;SDS011;20066;48.764;9.176;2023-04-12T09:13:53;3.20;;;1.60;;
549;SDS011;20066;48.764;9.176;2023-04-12T09:16:32;4.10;;;1.50;;
549;SDS011;20066;48.764;9.176;2023-04-12T09:19:01;4.05;;;1.85;;
549;SDS011;20066;48.764;9.176;2023-04-12T09:21:30;8.63;;;1.80;;
549;SDS011;20066;48.764;9.176;2023-04-12T09:24:01;4.28;;;1.90;;
549;SDS011;20066;48.764;9.176;2023-04-12T09:26:32;3.10;;;1.60;;
549;SDS011;20066;48.764;9.176;2023-04-12T09:29:00;5.18;;;1.80;;
549;SDS011;20066;48.764;9.176;2023-04-12T09:31:28;4.80;;;1.67;;
549;SDS011;20066;48.764;9.176;2023-04-12T09:34:04;3.30;;;2.03;;
549;SDS011;20066;48.764;9.176;2023-04-12T09:36:36;7.53;;;2.03;;
549;SDS011;20066;48.764;9.176;2023-04-12T09:39:05;4.30;;;1.97;;
549;SDS011;20066;48.764;9.176;2023-04-12T09:41:35;6.90;;;2.53;;
549;SDS011;20066;48.764;9.176;2023-04-12T09:44:03;3.77;;;1.80;;
549;SDS011;20066;48.764;9.176;2023-04-12T09:46:30;7.00;;;2.60;;
549;SDS011;20066;48.764;9.176;2023-04-12T09:48:59;7.10;;;2.40;;
549;SDS011;20066;48.764;9.176;2023-04-12T09:51:29;5.78;;;2.42;;
549;SDS011;20066;48.764;9.176;2023-04-12T09:53:58;4.97;;;1.70;;
549;SDS011;20066;48.764;9.176;2023-04-12T09:56:27;6.73;;;1.83;;
549;SDS011;20066;48.764;9.176;2023-04-12T09:59:00;2.20;;;1.70;;
549;SDS011;20066;48.764;9.176;2023-04-12T10:01:31;5.23;;;2.20;;
549;SDS011;20066;48.764;9.176;2023-04-12T10:04:01;6.43;;;2.43;;
549;SDS011;20066;48.764;9.176;2023-04-12T10:06:32;5.40;;;2.20;;
549;SDS011;20066;48.764;9.176;2023-04-12T10:09:02;7.73;;;2.07;;
549;SDS011;20066;48.764;9.176;2023-04-12T10:11:30;9.73;;;2.03;;
549;SDS011;20066;48.764;9.176;2023-04-12T10:14:02;5.33;;;2.27;;
549;SDS011;20066;48.764;9.176;2023-04-12T10:16:29;7.40;;;1.80;;
549;SDS011;20066;48.764;9.176;2023-04-12T10:19:00;5.97;;;2.03;;
549;SDS011;20066;48.764;9.176;2023-04-12T10:21:29;3.57;;;1.40;;
549;SDS011;20066;48.764;9.176;2023-04-12T10:23:57;3.57;;;1.90;;
549;SDS011;20066;48.764;9.176;2023-04-12T10:26:25;5.00;;;1.93;;
549;SDS011;20066;48.764;9.176;2023-04-12T10:31:50;11.70;;;2.13;;
549;SDS011;20066;48.764;9.176;2023-04-12T10:34:22;2.97;;;1.90;;
549;SDS011;20066;48.764;9.176;2023-04-12T10:36:53;5.40;;;2.10;;
549;SDS011;20066;48.764;9.176;2023-04-12T10:39:38;3.33;;;1.57;;
549;SDS011;20066;48.764;9.176;2023-04-12T10:42:20;5.57;;;1.70;;
549;SDS011;20066;48.764;9.176;2023-04-12T10:44:52;2.50;;;1.20;;
549;SDS011;20066;48.764;9.176;2023-04-12T10:50:27;3.53;;;1.30;;
549;SDS011;20066;48.764;9.176;2023-04-12T10:55:52;3.10;;;1.53;;
549;SDS011;20066;48.764;9.176;2023-04-12T11:01:26;18.93;;;4.57;;
549;SDS011;20066;48.764;9.176;2023-04-12T11:04:11;5.47;;;1.70;;
549;SDS011;20066;48.764;9.176;2023-04-12T11:06:48;4.17;;;1.43;;
549;SDS011;20066;48.764;9.176;2023-04-12T11:09:25;7.70;;;1.83;;
549;SDS011;20066;48.764;9.176;2023-04-12T11:11:55;4.77;;;1.50;;
549;SDS011;20066;48.764;9.176;2023-04-12T11:14:26;2.70;;;1.27;;
549;SDS011;20066;48.764;9.176;2023-04-12T11:19:56;5.23;;;1.40;;
549;SDS011;20066;48.764;9.176;2023-04-12T11:22:27;4.93;;;1.63;;
549;SDS011;20066;48.764;9.176;2023-04-12T11:24:56;2.17;;;1.00;;
549;SDS011;20066;48.764;9.176;2023-04-12T11:27:26;3.03;;;1.10;;
549;SDS011;20066;48.764;9.176;2023-04-12T11:29:56;2.90;;;1.23;;
549;SDS011;20066;48.764;9.176;2023-04-12T11:32:27;2.50;;;1.20;;
549;SDS011;20066;48.764;9.176;2023-04-12T11:34:57;2.90;;;1.40;;
549;SDS011;20066;48.764;9.176;2023-04-12T11:37:25;2.43;;;1.20;;
549;SDS011;20066;48.764;9.176;2023-04-12T11:39:54;3.83;;;0.93;;
549;SDS011;20066;48.764;9.176;2023-04-12T11:42:25;2.50;;;1.30;;
549;SDS011;20066;48.764;9.176;2023-04-12T11:44:54;3.43;;;1.00;;
549;SDS011;20066;48.764;9.176;2023-04-12T11:47:33;3.37;;;1.00;;
549;SDS011;20066;48.764;9.176;2023-04-12T11:50:01;1.77;;;0.90;;
549;SDS011;20066;48.764;9.176;2023-04-12T11:52:29;1.97;;;0.93;;
549;SDS011;20066;48.764;9.176;2023-04-12T11:54:59;3.73;;;1.10;;
549;SDS011;20066;48.764;9.176;2023-04-12T11:57:41;5.50;;;1.50;;
549;SDS011;20066;48.764;9.176;2023-04-12T12:00:09;4.10;;;1.10;;
549;SDS011;20066;48.764;9.176;2023-04-12T12:02:39;6.40;;;1.30;;
549;SDS011;20066;48.764;9.176;2023-04-12T12:05:26;8.73;;;1.23;;
549;SDS011;20066;48.764;9.176;2023-04-12T12:07:55;1.23;;;0.80;;
549;SDS011;20066;48.764;9.176;2023-04-12T12:10:23;2.80;;;1.10;;
549;SDS011;20066;48.764;9.176;2023-04-12T12:13:12;2.83;;;1.20;;
549;SDS011;20066;48.764;9.176;2023-04-12T12:15:42;1.87;;;1.00;;
549;SDS011;20066;48.764;9.176;2023-04-12T12:18:12;5.90;;;0.80;;
549;SDS011;20066;48.764;9.176;2023-04-12T12:20:40;2.90;;;1.00;;
549;SDS011;20066;48.764;9.176;2023-04-12T12:23:09;3.00;;;1.20;;
549;SDS011;20066;48.764;9.176;2023-04-12T12:25:36;1.80;;;1.00;;
549;SDS011;20066;48.764;9.176;2023-04-12T12:28:04;3.60;;;1.13;;
549;SDS011;20066;48.764;9.176;2023-04-12T12:30:38;1.77;;;0.80;;
549;SDS011;20066;48.764;9.176;2023-04-12T12:33:06;3.60;;;1.30;;
549;SDS011;20066;48.764;9.176;2023-04-12T12:35:36;1.83;;;0.80;;
549;SDS011;20066;48.764;9.176;2023-04-12T12:38:05;1.10;;;0.67;;
549;SDS011;20066;48.764;9.176;2023-04-12T12:40:33;2.80;;;0.73;;
549;SDS011;20066;48.764;9.176;2023-04-12T12:43:02;3.17;;;0.80;;
549;SDS011;20066;48.764;9.176;2023-04-12T12:45:32;1.50;;;0.80;;
549;SDS011;20066;48.764;9.176;2023-04-12T12:48:01;3.00;;;0.73;;
549;SDS011;20066;48.764;9.176;2023-04-12T12:50:31;2.47;;;0.90;;
549;SDS011;20066;48.764;9.176;2023-04-12T12:53:01;3.00;;;1.00;;
549;SDS011;20066;48.764;9.176;2023-04-12T12:55:31;1.80;;;0.90;;
549;SDS011;20066;48.764;9.176;2023-04-12T12:57:59;4.23;;;0.80;;
549;SDS011;20066;48.764;9.176;2023-04-12T13:00:33;1.67;;;0.90;;
549;SDS011;20066;48.764;9.176;2023-04-12T13:03:01;3.33;;;0.73;;
549;SDS011;20066;48.764;9.176;2023-04-12T13:05:30;2.27;;;1.00;;
549;SDS011;20066;48.764;9.176;2023-04-12T13:07:58;2.00;;;1.10;;
549;SDS011;20066;48.764;9.176;2023-04-12T13:10:27;2.30;;;0.90;;
549;SDS011;20066;48.764;9.176;2023-04-12T13:12:55;5.80;;;1.13;;
549;SDS011;20066;48.764;9.176;2023-04-12T13:15:24;2.00;;;0.97;;
549;SDS011;20066;48.764;9.176;2023-04-12T13:17:52;3.93;;;1.10;;
549;SDS011;20066;48.764;9.176;2023-04-12T13:20:20;3.87;;;1.17;;
549;SDS011;20066;48.764;9.176;2023-04-12T13:22:48;2.13;;;1.20;;
549;SDS011;20066;48.764;9.176;2023-04-12T13:25:16;2.93;;;0.80;;
549;SDS011;20066;48.764;9.176;2023-04-12T13:27:47;2.17;;;1.10;;
549;SDS011;20066;48.764;9.176;2023-04-12T13:30:16;7.40;;;1.07;;
549;SDS011;20066;48.764;9.176;2023-04-12T13:32:44;3.00;;;0.90;;
549;SDS011;20066;48.764;9.176;2023-04-12T13:35:12;1.50;;;0.80;;
549;SDS011;20066;48.764;9.176;2023-04-12T13:37:40;7.80;;;1.17;;
549;SDS011;20066;48.764;9.176;2023-04-12T13:40:08;2.03;;;0.90;;
549;SDS011;20066;48.764;9.176;2023-04-12T13:42:36;6.33;;;1.03;;
549;SDS011;20066;48.764;9.176;2023-04-12T13:45:06;8.20;;;0.90;;
549;SDS011;20066;48.764;9.176;2023-04-12T13:47:36;1.50;;;0.90;;
549;SDS011;20066;48.764;9.176;2023-04-12T13:50:05;2.80;;;0.90;;
549;SDS011;20066;48.764;9.176;2023-04-12T13:52:33;1.73;;;0.80;;
549;SDS011;20066;48.764;9.176;2023-04-12T13:55:01;1.40;;;0.80;;
549;SDS011;20066;48.764;9.176;2023-04-12T13:57:33;4.60;;;1.10;;
549;SDS011;20066;48.764;9.176;2023-04-12T14:00:01;1.80;;;0.67;;
549;SDS011;20066;48.764;9.176;2023-04-12T14:02:30;2.10;;;0.87;;
549;SDS011;20066;48.764;9.176;2023-04-12T14:04:58;2.00;;;0.80;;
549;SDS011;20066;48.764;9.176;2023-04-12T14:07:26;2.17;;;0.73;;
549;SDS011;20066;48.764;9.176;2023-04-12T14:09:54;2.97;;;0.90;;
549;SDS011;20066;48.764;9.176;2023-04-12T14:12:23;1.53;;;0.80;;
549;SDS011;20066;48.764;9.176;2023-04-12T14:14:51;1.40;;;0.73;;
549;SDS011;20066;48.764;9.176;2023-04-12T14:17:19;3.03;;;1.00;;
549;SDS011;20066;48.764;9.176;2023-04-12T14:19:48;3.47;;;1.00;;
549;SDS011;20066;48.764;9.176;2023-04-12T14:22:16;3.50;;;0.77;;
549;SDS011;20066;48.764;9.176;2023-04-12T14:24:44;2.57;;;1.00;;
549;SDS011;20066;48.764;9.176;2023-04-12T14:27:11;3.20;;;0.80;;
549;SDS011;20066;48.764;9.176;2023-04-12T14:29:43;1.63;;;0.80;;
549;SDS011;20066;48.764;9.176;2023-04-12T14:32:11;1.80;;;0.90;;
549;SDS011;20066;48.764;9.176;2023-04-12T14:34:38;2.47;;;1.40;;
549;SDS011;20066;48.764;9.176;2023-04-12T14:37:10;2.73;;;1.00;;
549;SDS011;20066;48.764;9.176;2023-04-12T14:39:37;1.47;;;0.80;;
549;SDS011;20066;48.764;9.176;2023-04-12T14:42:05;1.70;;;0.90;;
549;SDS011;20066;48.764;9.176;2023-04-12T14:44:33;2.03;;;0.73;;
549;SDS011;20066;48.764;9.176;2023-04-12T14:47:01;3.20;;;0.73;;
549;SDS011;20066;48.764;9.176;2023-04-12T14:49:28;2.07;;;1.10;;
549;SDS011;20066;48.764;9.176;2023-04-12T14:51:58;1.30;;;0.60;;
549;SDS011;20066;48.764;9.176;2023-04-12T14:54:28;2.03;;;0.97;;
549;SDS011;20066;48.764;9.176;2023-04-12T14:56:56;2.20;;;0.80;;
549;SDS011;20066;48.764;9.176;2023-04-12T14:59:24;5.40;;;1.03;;
549;SDS011;20066;48.764;9.176;2023-04-12T15:01:53;6.20;;;0.83;;
549;SDS011;20066;48.764;9.176;2023-04-12T15:04:21;4.40;;;1.10;;
549;SDS011;20066;48.764;9.176;2023-04-12T15:06:49;3.07;;;0.87;;
549;SDS011;20066;48.764;9.176;2023-04-12T15:09:17;1.93;;;0.90;;
549;SDS011;20066;48.764;9.176;2023-04-12T15:11:49;2.00;;;0.80;;
549;SDS011;20066;48.764;9.176;2023-04-12T15:14:21;1.90;;;0.83;;
549;SDS011;20066;48.764;9.176;2023-04-12T15:16:49;2.07;;;0.80;;
549;SDS011;20066;48.764;9.176;2023-04-12T15:19:17;2.70;;;1.30;;
549;SDS011;20066;48.764;9.176;2023-04-12T15:21:48;2.03;;;1.00;;
549;SDS011;20066;48.764;9.176;2023-04-12T15:24:17;1.50;;;0.67;;
549;SDS011;20066;48.764;9.176;2023-04-12T15:26:46;4.67;;;0.90;;
549;SDS011;20066;48.764;9.176;2023-04-12T15:29:17;2.33;;;0.80;;
549;SDS011;20066;48.764;9.176;2023-04-12T15:31:47;1.00;;;0.50;;
549;SDS011;20066;48.764;9.176;2023-04-12T15:34:15;4.20;;;0.63;;
549;SDS011;20066;48.764;9.176;2023-04-12T15:36:43;2.03;;;0.83;;
549;SDS011;20066;48.764;9.176;2023-04-12T15:39:11;2.27;;;0.60;;
549;SDS011;20066;48.764;9.176;2023-04-12T15:41:40;2.83;;;0.60;;
549;SDS011;20066;48.764;9.176;2023-04-12T15:44:09;6.07;;;0.80;;
549;SDS011;20066;48.764;9.176;2023-04-12T15:46:40;2.57;;;0.77;;
549;SDS011;20066;48.764;9.176;2023-04-12T15:49:08;1.10;;;0.53;;
549;SDS011;20066;48.764;9.176;2023-04-12T15:51:37;2.60;;;0.87;;